createdAt,value
2022-11-24T00:01:24.112Z,99259.03
2022-11-24T00:03:59.271Z,99254.69
2022-11-24T00:06:26.844Z,99234.00
2022-11-24T00:08:55.205Z,99260.78
2022-11-24T00:11:28.761Z,99158.00
2022-11-24T00:13:57.538Z,99259.91
2022-11-24T00:16:27.780Z,99263.34
2022-11-24T00:18:58.710Z,99232.25
2022-11-24T00:21:27.654Z,99269.41
2022-11-24T00:23:55.353Z,99278.03
2022-11-24T00:26:28.738Z,99269.44
2022-11-24T00:28:58.867Z,99249.56
2022-11-24T00:31:31.810Z,99275.47
2022-11-24T00:34:02.112Z,99276.34
2022-11-24T00:36:32.226Z,99277.22
2022-11-24T00:39:05.359Z,99281.53
2022-11-24T00:41:33.198Z,99278.06
2022-11-24T00:44:01.056Z,99147.66
2022-11-24T00:46:29.006Z,99282.41
2022-11-24T00:48:56.931Z,99285.00
2022-11-24T00:51:30.518Z,99244.38
2022-11-24T00:53:59.147Z,99288.44
2022-11-24T00:56:27.715Z,99304.88
2022-11-24T00:58:55.701Z,99305.72
2022-11-24T01:01:25.628Z,99321.31
2022-11-24T01:03:55.266Z,99304.00
2022-11-24T01:06:25.684Z,99301.41
2022-11-24T01:08:53.450Z,99306.59
2022-11-24T01:11:24.855Z,99313.53
2022-11-24T01:13:56.152Z,99297.97
2022-11-24T01:16:33.517Z,99316.13
2022-11-24T01:19:01.932Z,99315.25
2022-11-24T01:21:29.623Z,99297.09
2022-11-24T01:23:57.855Z,99322.19
2022-11-24T01:26:25.411Z,99323.88
2022-11-24T01:28:54.865Z,99332.53
2022-11-24T01:31:23.284Z,99320.41
2022-11-24T01:33:51.103Z,99214.94
2022-11-24T01:36:18.884Z,99342.84
2022-11-24T01:38:46.364Z,99335.94
2022-11-24T01:41:24.776Z,99329.84
2022-11-24T01:43:54.069Z,99338.47
2022-11-24T01:46:42.867Z,99269.28
2022-11-24T01:49:28.058Z,99235.56
2022-11-24T01:52:01.581Z,99333.25
2022-11-24T01:54:33.773Z,99336.72
2022-11-24T01:57:10.110Z,99252.00
2022-11-24T01:59:37.748Z,99336.75
2022-11-24T02:02:05.846Z,99342.78
2022-11-24T02:04:35.102Z,99344.50
2022-11-24T02:07:06.226Z,99348.81
2022-11-24T02:09:46.110Z,99358.31
2022-11-24T02:12:13.686Z,99361.72
2022-11-24T02:14:43.418Z,99363.47
2022-11-24T02:17:11.183Z,99373.81
2022-11-24T02:19:41.454Z,99376.41
2022-11-24T02:22:20.848Z,99368.66
2022-11-24T02:24:52.306Z,99366.09
2022-11-24T02:27:20.227Z,99373.00
2022-11-24T02:29:48.977Z,99379.94
2022-11-24T02:32:16.932Z,99221.69
2022-11-24T02:34:44.446Z,99382.56
2022-11-24T02:37:11.916Z,99388.53
2022-11-24T02:39:39.250Z,99302.00
2022-11-24T02:42:11.051Z,99391.09
2022-11-24T02:44:44.572Z,99389.31
2022-11-24T02:47:13.464Z,99289.84
2022-11-24T02:49:41.529Z,99319.22
2022-11-24T02:52:09.312Z,99353.91
2022-11-24T02:54:37.239Z,99280.34
2022-11-24T02:57:04.671Z,99354.69
2022-11-24T02:59:32.255Z,99367.72
2022-11-24T03:01:59.596Z,99372.03
2022-11-24T03:04:27.076Z,99390.22
2022-11-24T03:06:54.904Z,99387.56
2022-11-24T03:09:22.465Z,99372.81
2022-11-24T03:11:49.864Z,99391.81
2022-11-24T03:14:17.488Z,99394.38
2022-11-24T03:16:45.069Z,99391.72
2022-11-24T03:19:12.451Z,99398.59
2022-11-24T03:21:40.028Z,99402.94
2022-11-24T03:24:07.649Z,99383.84
2022-11-24T03:26:35.851Z,99309.44
2022-11-24T03:29:03.615Z,99402.09
2022-11-24T03:31:30.992Z,99402.13
2022-11-24T03:33:58.580Z,99407.31
2022-11-24T03:36:26.404Z,99406.44
2022-11-24T03:38:53.728Z,99361.41
2022-11-24T03:41:21.197Z,99405.56
2022-11-24T03:43:48.758Z,99410.75
2022-11-24T03:46:16.161Z,99407.31
2022-11-24T03:48:43.840Z,99396.97
2022-11-24T03:51:11.491Z,99410.78
2022-11-24T03:53:38.917Z,99415.91
2022-11-24T03:56:06.979Z,99415.88
2022-11-24T03:58:34.771Z,99424.56
2022-11-24T04:01:02.342Z,99407.25
2022-11-24T04:03:30.233Z,99368.25
2022-11-24T04:05:57.951Z,99425.34
2022-11-24T04:08:25.571Z,99423.56
2022-11-24T04:10:54.515Z,99425.31
2022-11-24T04:13:24.200Z,99436.56
2022-11-24T04:15:52.302Z,99421.91
2022-11-24T04:18:20.131Z,99434.88
2022-11-24T04:20:51.048Z,99323.22
2022-11-24T04:23:19.341Z,99435.75
2022-11-24T04:25:46.607Z,99438.31
2022-11-24T04:28:14.072Z,99424.41
2022-11-24T04:30:45.057Z,99440.88
2022-11-24T04:33:13.511Z,99446.03
2022-11-24T04:35:41.201Z,99451.22
2022-11-24T04:38:08.664Z,99448.66
2022-11-24T04:40:36.191Z,99369.03
2022-11-24T04:43:05.568Z,99448.75
2022-11-24T04:45:32.905Z,99449.63
2022-11-24T04:48:00.332Z,99457.38
2022-11-24T04:50:28.295Z,99457.44
2022-11-24T04:52:55.954Z,99463.47
2022-11-24T04:55:23.278Z,99449.59
2022-11-24T04:57:50.855Z,99457.31
2022-11-24T05:00:18.759Z,99482.41
2022-11-24T05:02:46.103Z,99474.63
2022-11-24T05:05:13.786Z,99475.47
2022-11-24T05:07:41.489Z,99487.63
2022-11-24T05:10:27.846Z,99500.56
2022-11-24T05:12:57.206Z,99499.75
2022-11-24T05:15:24.571Z,99504.06
2022-11-24T05:17:52.385Z,99497.97
2022-11-24T05:20:20.395Z,99516.91
2022-11-24T05:22:48.095Z,99489.22
2022-11-24T05:25:16.097Z,99503.97
2022-11-24T05:27:43.322Z,99426.78
2022-11-24T05:30:11.262Z,99489.16
2022-11-24T05:32:38.778Z,99507.28
2022-11-24T05:35:06.831Z,99349.59
2022-11-24T05:37:34.175Z,99524.59
2022-11-24T05:40:01.842Z,99524.63
2022-11-24T05:42:47.244Z,99529.72
2022-11-24T05:45:21.153Z,99532.28
2022-11-24T05:47:49.674Z,99387.66
2022-11-24T05:50:18.351Z,99551.47
2022-11-24T05:52:46.348Z,99469.28
2022-11-24T05:55:19.593Z,99548.09
2022-11-24T05:57:46.981Z,99567.03
2022-11-24T06:00:15.964Z,99554.97
2022-11-24T06:02:43.434Z,99554.09
2022-11-24T06:05:10.843Z,99462.19
2022-11-24T06:07:38.563Z,99567.97
2022-11-24T06:10:06.241Z,99571.41
2022-11-24T06:12:33.595Z,99573.16
2022-11-24T06:15:01.193Z,99576.59
2022-11-24T06:17:29.203Z,99469.16
2022-11-24T06:19:56.634Z,99420.75
2022-11-24T06:22:24.326Z,99594.91
2022-11-24T06:24:51.947Z,99516.91
2022-11-24T06:27:19.589Z,99569.84
2022-11-24T06:29:47.041Z,99600.94
2022-11-24T06:32:14.636Z,99604.31
2022-11-24T06:34:42.074Z,99513.31
2022-11-24T06:37:09.764Z,99504.75
2022-11-24T06:39:37.586Z,99597.53
2022-11-24T06:42:05.156Z,99604.44
2022-11-24T06:44:32.950Z,99541.88
2022-11-24T06:47:00.332Z,99602.56
2022-11-24T06:49:27.937Z,99533.97
2022-11-24T06:51:56.154Z,99605.97
2022-11-24T06:54:23.584Z,99605.97
2022-11-24T06:56:56.023Z,99550.50
2022-11-24T06:59:23.415Z,99617.22
2022-11-24T07:01:51.014Z,99612.03
2022-11-24T07:04:18.288Z,99612.06
2022-11-24T07:06:46.055Z,99613.75
2022-11-24T07:09:14.696Z,99527.00
2022-11-24T07:11:42.257Z,99614.59
2022-11-24T07:14:10.360Z,99594.72
2022-11-24T07:16:39.160Z,99525.41
2022-11-24T07:19:06.421Z,99603.41
2022-11-24T07:21:33.751Z,99520.13
2022-11-24T07:24:01.179Z,99612.94
2022-11-24T07:26:28.741Z,99597.41
2022-11-24T07:28:56.137Z,99583.66
2022-11-24T07:31:26.573Z,99496.19
2022-11-24T07:33:55.757Z,99607.94
2022-11-24T07:36:24.115Z,99511.59
2022-11-24T07:38:51.752Z,99547.06
2022-11-24T07:41:20.464Z,99507.34
2022-11-24T07:43:48.991Z,99588.94
2022-11-24T07:46:19.363Z,99611.53
2022-11-24T07:48:47.224Z,99563.06
2022-11-24T07:51:16.070Z,99601.19
2022-11-24T07:53:43.600Z,99576.91
2022-11-24T07:56:11.145Z,99594.25
2022-11-24T07:58:39.143Z,99618.47
2022-11-24T08:01:11.717Z,99548.22
2022-11-24T08:03:39.910Z,99620.13
2022-11-24T08:06:23.558Z,99627.91
2022-11-24T08:08:53.389Z,99615.78
2022-11-24T08:11:20.728Z,99640.03
2022-11-24T08:13:48.139Z,99616.56
2022-11-24T08:16:18.366Z,99638.28
2022-11-24T08:18:51.295Z,99644.25
2022-11-24T08:21:19.302Z,99644.28
2022-11-24T08:23:46.911Z,99654.66
2022-11-24T08:26:19.063Z,99655.63
2022-11-24T08:28:47.750Z,99657.47
2022-11-24T08:31:18.949Z,99657.63
2022-11-24T08:33:46.800Z,99667.94
2022-11-24T08:36:16.883Z,99667.06
2022-11-24T08:38:44.959Z,99569.94
2022-11-24T08:41:14.792Z,99673.25
2022-11-24T08:43:42.732Z,99676.81
2022-11-24T08:46:17.278Z,99674.25
2022-11-24T08:48:51.513Z,99678.63
2022-11-24T08:51:22.038Z,99692.41
2022-11-24T08:53:49.830Z,99681.97
2022-11-24T08:56:17.618Z,99688.09
2022-11-24T08:58:45.122Z,99604.81
2022-11-24T09:01:17.354Z,99695.84
2022-11-24T09:03:50.701Z,99696.69
2022-11-24T09:06:23.146Z,99692.31
2022-11-24T09:08:51.997Z,99720.88
2022-11-24T09:11:19.952Z,99696.72
2022-11-24T09:13:47.357Z,99698.38
2022-11-24T09:16:23.529Z,99695.78
2022-11-24T09:19:05.749Z,99699.16
2022-11-24T09:21:34.645Z,99704.31
2022-11-24T09:24:02.294Z,99704.25
2022-11-24T09:26:34.633Z,99696.41
2022-11-24T09:29:04.407Z,99704.25
2022-11-24T09:31:34.667Z,99704.25
2022-11-24T09:34:07.553Z,99705.09
2022-11-24T09:36:35.603Z,99691.25
2022-11-24T09:39:03.167Z,99700.81
2022-11-24T09:41:55.091Z,99614.09
2022-11-24T09:44:49.335Z,99697.31
2022-11-24T09:47:33.191Z,99702.44
2022-11-24T09:50:10.840Z,99699.03
2022-11-24T09:52:45.855Z,99711.16
2022-11-24T09:55:36.526Z,99705.09
2022-11-24T09:58:24.724Z,99709.53
2022-11-24T10:00:54.698Z,99713.84
2022-11-24T10:03:34.031Z,99706.03
2022-11-24T10:06:05.519Z,99713.75
2022-11-24T10:08:39.162Z,99712.75
2022-11-24T10:11:16.124Z,99717.19
2022-11-24T10:13:52.401Z,99644.25
2022-11-24T10:16:45.747Z,99717.75
2022-11-24T10:19:37.104Z,99719.38
2022-11-24T10:22:23.784Z,99718.53
2022-11-24T10:25:13.981Z,99725.44
2022-11-24T10:27:57.548Z,99703.63
2022-11-24T10:30:25.162Z,99731.38
2022-11-24T10:33:17.860Z,99734.75
2022-11-24T10:35:50.803Z,99647.06
2022-11-24T10:38:49.496Z,99739.13
2022-11-24T10:41:32.238Z,99699.22
2022-11-24T10:43:59.837Z,99730.50
2022-11-24T10:46:32.471Z,99738.25
2022-11-24T10:49:05.666Z,99735.75
2022-11-24T10:52:01.539Z,99734.91
2022-11-24T10:54:29.510Z,99734.03
2022-11-24T10:56:56.843Z,99733.94
2022-11-24T10:59:40.028Z,99725.13
2022-11-24T11:02:30.145Z,99736.22
2022-11-24T11:04:57.922Z,99676.91
2022-11-24T11:07:26.779Z,99745.75
2022-11-24T11:10:23.277Z,99760.44
2022-11-24T11:12:50.906Z,99724.91
2022-11-24T11:15:31.513Z,99761.25
2022-11-24T11:18:02.341Z,99738.69
2022-11-24T11:20:34.380Z,99737.75
2022-11-24T11:23:14.263Z,99750.75
2022-11-24T11:25:43.958Z,99749.88
2022-11-24T11:28:18.303Z,99736.03
2022-11-24T11:31:22.244Z,99742.81
2022-11-24T11:34:13.899Z,99751.34
2022-11-24T11:36:52.976Z,99747.09
2022-11-24T11:39:29.355Z,99735.84
2022-11-24T11:42:37.946Z,99750.50
2022-11-24T11:45:05.613Z,99748.81
2022-11-24T11:47:57.514Z,99666.31
2022-11-24T11:50:30.793Z,99752.13
2022-11-24T11:53:16.514Z,99756.31
2022-11-24T11:55:57.224Z,99749.41
2022-11-24T11:58:27.774Z,99771.00
2022-11-24T12:01:16.007Z,99771.91
2022-11-24T12:03:56.643Z,99773.66
2022-11-24T12:06:42.522Z,99769.38
2022-11-24T12:09:49.968Z,99764.09
2022-11-24T12:12:20.095Z,99770.19
2022-11-24T12:15:10.721Z,99771.91
2022-11-24T12:18:04.883Z,99764.13
2022-11-24T12:20:32.384Z,99762.47
2022-11-24T12:23:24.495Z,99758.03
2022-11-24T12:26:02.653Z,99761.44
2022-11-24T12:28:39.686Z,99680.44
2022-11-24T12:31:45.540Z,99785.56
2022-11-24T12:34:15.667Z,99781.31
2022-11-24T12:36:56.573Z,99783.81
2022-11-24T12:39:41.941Z,99660.38
2022-11-24T12:42:21.218Z,99776.19
2022-11-24T12:45:09.795Z,99778.66
2022-11-24T12:48:04.013Z,99793.25
2022-11-24T12:50:37.476Z,99785.50
2022-11-24T12:53:16.627Z,99794.56
2022-11-24T12:55:44.832Z,99805.72
2022-11-24T12:58:25.167Z,99803.06
2022-11-24T13:01:25.237Z,99803.84
2022-11-24T13:04:30.088Z,99798.53
2022-11-24T13:07:11.577Z,99806.19
2022-11-24T13:10:01.112Z,99804.22
2022-11-24T13:12:29.990Z,99813.88
2022-11-24T13:14:57.982Z,99820.84
2022-11-24T13:17:43.496Z,99826.00
2022-11-24T13:20:19.940Z,99831.19
2022-11-24T13:22:56.381Z,99835.41
2022-11-24T13:25:25.680Z,99834.72
2022-11-24T13:27:55.569Z,99822.53
2022-11-24T13:30:35.376Z,99829.47
2022-11-24T13:33:16.148Z,99834.41
2022-11-24T13:36:03.438Z,99841.50
2022-11-24T13:38:45.822Z,99844.19
2022-11-24T13:41:32.174Z,99846.78
2022-11-24T13:44:25.508Z,99767.59
2022-11-24T13:47:06.839Z,99868.38
2022-11-24T13:49:42.152Z,99698.03
2022-11-24T13:52:40.536Z,99865.78
2022-11-24T13:55:14.287Z,99864.88
2022-11-24T13:57:43.180Z,99862.09
2022-11-24T14:00:31.071Z,99865.47
2022-11-24T14:03:29.382Z,99871.50
2022-11-24T14:05:57.806Z,99809.94
2022-11-24T14:08:37.089Z,99788.03
2022-11-24T14:11:13.400Z,99886.19
2022-11-24T14:13:41.050Z,99886.00
2022-11-24T14:16:11.391Z,99889.44
2022-11-24T14:18:41.187Z,99845.06
2022-11-24T14:21:20.843Z,99896.13
2022-11-24T14:23:57.040Z,99893.25
2022-11-24T14:26:31.662Z,99901.19
2022-11-24T14:29:15.166Z,99898.59
2022-11-24T14:31:44.199Z,99899.41
2022-11-24T14:34:11.623Z,99901.09
2022-11-24T14:36:40.207Z,99879.38
2022-11-24T14:39:11.515Z,99820.94
2022-11-24T14:41:39.131Z,99911.41
2022-11-24T14:44:11.963Z,99905.25
2022-11-24T14:46:39.802Z,99819.00
2022-11-24T14:49:08.059Z,99872.78
2022-11-24T14:51:44.893Z,99889.94
2022-11-24T14:54:21.441Z,99896.94
2022-11-24T14:57:04.729Z,99906.25
2022-11-24T14:59:36.342Z,99913.25
2022-11-24T15:02:24.594Z,99917.63
2022-11-24T15:05:06.420Z,99924.34
2022-11-24T15:07:38.679Z,99925.25
2022-11-24T15:10:19.296Z,99927.97
2022-11-24T15:12:57.045Z,99932.84
2022-11-24T15:15:37.447Z,99938.06
2022-11-24T15:18:07.047Z,99925.97
2022-11-24T15:20:44.780Z,99931.28
2022-11-24T15:23:18.226Z,99935.63
2022-11-24T15:25:45.612Z,99902.59
2022-11-24T15:28:12.841Z,99890.34
2022-11-24T15:30:40.774Z,99926.88
2022-11-24T15:33:18.716Z,99943.16
2022-11-24T15:35:48.401Z,99830.47
2022-11-24T15:38:16.692Z,99941.19
2022-11-24T15:40:46.084Z,99934.34
2022-11-24T15:43:25.690Z,99939.47
2022-11-24T15:45:53.136Z,99946.34
2022-11-24T15:48:20.432Z,99871.25
2022-11-24T15:50:48.698Z,99948.09
2022-11-24T15:53:20.346Z,99936.97
2022-11-24T15:55:48.862Z,99842.00
2022-11-24T15:58:16.913Z,99950.91
2022-11-24T16:00:44.961Z,99904.81
2022-11-24T16:03:45.143Z,99957.97
2022-11-24T16:06:00.106Z,99854.97
2022-11-24T16:08:27.540Z,99880.91
2022-11-24T16:10:54.837Z,99968.84
2022-11-24T16:13:22.476Z,99858.03
2022-11-24T16:15:50.113Z,99960.00
2022-11-24T16:18:17.635Z,99939.13
2022-11-24T16:20:45.176Z,99866.81
2022-11-24T16:23:12.559Z,99886.91
2022-11-24T16:25:40.353Z,99960.16
2022-11-24T16:28:08.086Z,99954.72
2022-11-24T16:30:35.669Z,99919.97
2022-11-24T16:33:06.880Z,99808.63
2022-11-24T16:35:34.592Z,99977.78
2022-11-24T16:38:01.802Z,99971.63
2022-11-24T16:40:28.971Z,99975.06
2022-11-24T16:42:58.267Z,99907.94
2022-11-24T16:45:26.027Z,99938.88
2022-11-24T16:47:53.390Z,99894.81
2022-11-24T16:50:21.144Z,99927.72
2022-11-24T16:52:48.438Z,99982.47
2022-11-24T16:55:15.675Z,99992.81
2022-11-24T16:57:43.761Z,99983.44
2022-11-24T17:00:11.765Z,99999.66
2022-11-24T17:02:39.110Z,99998.63
2022-11-24T17:05:07.149Z,99939.97
2022-11-24T17:07:34.790Z,99981.97
2022-11-24T17:10:02.011Z,99906.25
2022-11-24T17:12:30.993Z,99943.47
2022-11-24T17:15:30.579Z,100001.19
2022-11-24T17:18:16.234Z,99996.13
2022-11-24T17:20:36.155Z,99947.94
2022-11-24T17:23:03.854Z,100006.22
2022-11-24T17:25:32.720Z,100012.25
2022-11-24T17:27:59.964Z,100003.59
2022-11-24T17:30:27.569Z,100002.00
2022-11-24T17:32:56.937Z,100007.09
2022-11-24T17:35:24.308Z,99879.78
2022-11-24T17:37:51.956Z,99957.47
2022-11-24T17:40:34.690Z,100014.22
2022-11-24T17:43:02.454Z,99977.59
2022-11-24T17:45:30.841Z,100015.06
2022-11-24T17:48:01.241Z,99899.72
2022-11-24T17:50:28.732Z,100022.47
2022-11-24T17:52:56.084Z,100026.59
2022-11-24T17:55:26.421Z,100024.00
2022-11-24T17:57:54.259Z,99919.91
2022-11-24T18:00:21.813Z,100017.78
2022-11-24T18:02:49.466Z,99926.19
2022-11-24T18:05:17.610Z,99976.69
2022-11-24T18:07:45.196Z,100036.97
2022-11-24T18:10:12.681Z,100037.72
2022-11-24T18:12:40.947Z,100031.56
2022-11-24T18:15:08.801Z,100014.16
2022-11-24T18:17:36.298Z,100037.78
2022-11-24T18:20:05.909Z,100027.31
2022-11-24T18:23:03.900Z,100044.66
2022-11-24T18:25:22.270Z,100015.75
2022-11-24T18:27:50.084Z,100050.97
2022-11-24T18:30:17.725Z,100050.13
2022-11-24T18:32:45.589Z,100049.88
2022-11-24T18:35:13.265Z,99928.41
2022-11-24T18:37:44.415Z,100047.81
2022-11-24T18:40:12.204Z,99963.00
2022-11-24T18:42:40.736Z,100036.72
2022-11-24T18:45:08.618Z,100037.56
2022-11-24T18:47:36.319Z,100046.22
2022-11-24T18:50:04.125Z,100048.81
2022-11-24T18:52:32.041Z,99969.63
2022-11-24T18:55:04.122Z,100055.97
2022-11-24T18:57:31.916Z,100055.91
2022-11-24T18:59:59.372Z,100047.34
2022-11-24T19:02:27.366Z,99970.56
2022-11-24T19:04:54.872Z,100048.09
2022-11-24T19:07:22.395Z,100050.69
2022-11-24T19:09:49.818Z,100061.91
2022-11-24T19:12:17.544Z,100054.25
2022-11-24T19:14:45.132Z,100024.63
2022-11-24T19:17:12.900Z,100073.41
2022-11-24T19:19:40.433Z,99969.19
2022-11-24T19:22:08.908Z,100058.38
2022-11-24T19:24:37.021Z,100065.41
2022-11-24T19:27:05.246Z,100063.63
2022-11-24T19:29:32.732Z,100073.88
2022-11-24T19:32:00.646Z,100068.66
2022-11-24T19:34:28.320Z,100066.16
2022-11-24T19:36:55.566Z,100075.84
2022-11-24T19:39:23.265Z,100069.25
2022-11-24T19:41:51.163Z,99989.75
2022-11-24T19:44:18.412Z,100064.59
2022-11-24T19:46:46.242Z,100064.28
2022-11-24T19:49:13.711Z,100063.41
2022-11-24T19:51:41.374Z,100063.56
2022-11-24T19:54:13.550Z,100074.75
2022-11-24T19:56:42.245Z,100063.91
2022-11-24T19:59:10.085Z,100076.09
2022-11-24T20:01:40.585Z,100063.06
2022-11-24T20:04:13.734Z,99954.41
2022-11-24T20:06:43.380Z,100060.50
2022-11-24T20:09:15.736Z,99965.34
2022-11-24T20:11:43.359Z,100073.34
2022-11-24T20:14:13.360Z,100069.97
2022-11-24T20:16:41.758Z,100047.31
2022-11-24T20:19:15.005Z,100066.72
2022-11-24T20:21:46.440Z,100052.94
2022-11-24T20:24:25.033Z,100071.94
2022-11-24T20:26:58.343Z,100071.06
2022-11-24T20:29:26.048Z,100026.63
2022-11-24T20:31:55.303Z,100076.41
2022-11-24T20:34:23.485Z,100076.53
2022-11-24T20:36:53.180Z,100080.75
2022-11-24T20:39:26.415Z,100060.69
2022-11-24T20:41:55.515Z,100082.25
2022-11-24T20:44:26.146Z,100082.25
2022-11-24T20:46:57.346Z,100086.56
2022-11-24T20:49:25.247Z,100087.91
2022-11-24T20:51:57.402Z,100082.56
2022-11-24T20:54:25.076Z,100092.75
2022-11-24T20:56:52.516Z,100093.00
2022-11-24T20:59:22.910Z,100096.50
2022-11-24T21:01:51.920Z,100098.06
2022-11-24T21:04:24.254Z,100105.59
2022-11-24T21:06:51.539Z,100105.69
2022-11-24T21:09:19.556Z,100106.75
2022-11-24T21:11:46.938Z,100083.28
2022-11-24T21:14:14.473Z,100117.09
2022-11-24T21:16:42.968Z,100026.31
2022-11-24T21:19:12.955Z,100115.38
2022-11-24T21:21:42.908Z,100124.03
2022-11-24T21:24:13.226Z,100132.38
2022-11-24T21:26:41.497Z,99971.03
2022-11-24T21:29:09.192Z,100127.47
2022-11-24T21:31:38.874Z,100022.56
2022-11-24T21:34:07.135Z,100129.41
2022-11-24T21:36:35.324Z,100137.88
2022-11-24T21:39:04.201Z,100108.97
2022-11-24T21:41:33.546Z,100136.94
2022-11-24T21:44:01.095Z,100128.47
2022-11-24T21:46:30.558Z,100127.47
2022-11-24T21:48:58.106Z,100040.66
2022-11-24T21:51:25.283Z,100139.41
2022-11-24T21:53:53.998Z,100049.41
2022-11-24T21:56:22.946Z,100125.69
2022-11-24T21:58:52.223Z,100142.44
2022-11-24T22:01:22.038Z,100131.25
2022-11-24T22:03:50.238Z,100144.09
2022-11-24T22:06:19.304Z,100145.03
2022-11-24T22:08:48.053Z,100134.09
2022-11-24T22:11:18.588Z,100141.09
2022-11-24T22:13:46.505Z,100147.25
2022-11-24T22:16:17.639Z,99963.00
2022-11-24T22:18:45.974Z,100135.63
2022-11-24T22:21:24.046Z,100151.13
2022-11-24T22:23:55.028Z,100158.88
2022-11-24T22:26:23.939Z,100125.19
2022-11-24T22:28:51.906Z,100119.06
2022-11-24T22:31:32.937Z,100158.25
2022-11-24T22:34:01.179Z,100131.72
2022-11-24T22:36:30.238Z,100148.41
2022-11-24T22:39:04.918Z,100153.75
2022-11-24T22:41:33.810Z,100157.94
2022-11-24T22:44:01.388Z,100155.22
2022-11-24T22:46:30.627Z,100150.78
2022-11-24T22:49:00.175Z,100159.44
2022-11-24T22:51:33.327Z,100138.59
2022-11-24T22:54:03.822Z,100159.63
2022-11-24T22:56:34.898Z,100164.69
2022-11-24T22:59:03.066Z,100170.53
2022-11-24T23:01:32.120Z,100165.28
2022-11-24T23:03:59.927Z,100164.53
2022-11-24T23:06:29.642Z,100161.31
2022-11-24T23:08:58.246Z,100170.75
2022-11-24T23:11:37.220Z,100181.63
2022-11-24T23:14:08.542Z,100154.75
2022-11-24T23:16:36.460Z,100157.28
2022-11-24T23:19:04.103Z,100171.88
2022-11-24T23:21:33.744Z,100163.44
2022-11-24T23:24:03.059Z,100152.75
2022-11-24T23:26:33.297Z,100166.47
2022-11-24T23:29:00.670Z,100169.84
2022-11-24T23:31:29.262Z,100179.38
2022-11-24T23:33:58.865Z,100189.78
2022-11-24T23:36:27.284Z,100194.84
2022-11-24T23:38:54.893Z,100179.16
2022-11-24T23:41:24.713Z,100186.88
2022-11-24T23:43:52.648Z,100185.88
2022-11-24T23:46:23.205Z,100196.44
2022-11-24T23:48:52.109Z,100186.19
2022-11-24T23:51:28.279Z,100188.63
2022-11-24T23:53:55.482Z,100188.28
2022-11-24T23:56:25.659Z,100192.63
2022-11-24T23:58:53.092Z,100174.75
